TimeCDT,TemperatureF,Dew PointF,Humidity,Sea Level PressureIn,VisibilityMPH,Wind Direction,Wind SpeedMPH,Gust SpeedMPH,PrecipitationIn,Events,Conditions,WindDirDegrees,DateUTC
12:15 AM,68.0,62.6,83,29.93,10.0,South,4.6,-,N/A,,Mostly Cloudy,180,2013-10-01 05:15:00
12:35 AM,66.2,60.8,83,29.93,10.0,SSE,4.6,-,N/A,,Mostly Cloudy,150,2013-10-01 05:35:00
12:55 AM,68.0,62.6,83,29.93,9.0,SSE,5.8,-,N/A,,Overcast,160,2013-10-01 05:55:00
1:15 AM,68.0,62.6,83,29.93,10.0,SSE,6.9,-,N/A,,Overcast,160,2013-10-01 06:15:00
1:35 AM,69.8,62.6,78,29.93,10.0,SSE,6.9,-,N/A,,Overcast,150,2013-10-01 06:35:00
1:55 AM,68.0,62.6,83,29.93,10.0,SSE,5.8,-,N/A,,Mostly Cloudy,150,2013-10-01 06:55:00
2:15 AM,66.2,60.8,83,29.93,8.0,SSE,5.8,-,N/A,,Partly Cloudy,160,2013-10-01 07:15:00
2:55 AM,66.2,60.8,83,29.93,7.0,SSE,6.9,-,N/A,,Clear,160,2013-10-01 07:55:00
3:15 AM,66.2,60.8,83,29.93,7.0,South,5.8,-,N/A,,Clear,170,2013-10-01 08:15:00
3:35 AM,66.2,60.8,83,29.93,6.0,South,5.8,-,N/A,,Clear,170,2013-10-01 08:35:00
3:55 AM,66.2,60.8,83,29.93,5.0,SSE,4.6,-,N/A,,Clear,160,2013-10-01 08:55:00
4:15 AM,66.2,60.8,83,29.93,4.0,SSE,4.6,-,N/A,,Clear,160,2013-10-01 09:15:00
4:35 AM,64.4,60.8,88,29.94,5.0,SSE,4.6,-,N/A,,Clear,160,2013-10-01 09:35:00
4:55 AM,66.2,60.8,83,29.95,3.0,SSE,3.5,-,N/A,,Clear,160,2013-10-01 09:55:00
5:15 AM,66.2,60.8,83,29.95,1.5,SSE,3.5,-,N/A,,Clear,150,2013-10-01 10:15:00
5:35 AM,66.2,60.8,83,29.96,0.8,South,3.5,-,N/A,,Unknown,170,2013-10-01 10:35:00
5:55 AM,64.4,59.0,83,29.96,0.2,Calm,Calm,-,N/A,,Mostly Cloudy,0,2013-10-01 10:55:00
6:16 AM,64.4,60.8,88,29.97,1.0,SE,4.6,-,N/A,,Overcast,130,2013-10-01 11:16:00
6:35 AM,64.4,60.8,88,29.97,2.5,ESE,3.5,-,N/A,,Mostly Cloudy,110,2013-10-01 11:35:00
6:55 AM,64.4,60.8,88,29.98,2.5,ESE,4.6,-,N/A,,Scattered Clouds,120,2013-10-01 11:55:00
7:15 AM,64.4,60.8,88,29.99,1.2,ESE,4.6,-,N/A,,Clear,120,2013-10-01 12:15:00
7:35 AM,64.4,60.8,88,29.99,1.2,East,3.5,-,N/A,,Mostly Cloudy,100,2013-10-01 12:35:00
7:55 AM,66.2,60.8,83,30.00,1.8,Calm,Calm,-,N/A,,Mostly Cloudy,0,2013-10-01 12:55:00
8:15 AM,66.2,62.6,88,30.00,1.8,ESE,4.6,-,N/A,,Mostly Cloudy,120,2013-10-01 13:15:00
8:35 AM,66.2,62.6,88,30.01,2.5,SE,4.6,-,N/A,,Partly Cloudy,130,2013-10-01 13:35:00
8:55 AM,68.0,62.6,83,30.01,4.0,SSE,4.6,-,N/A,,Clear,150,2013-10-01 13:55:00
9:15 AM,69.8,64.4,83,30.02,6.0,SSE,6.9,-,N/A,,Clear,150,2013-10-01 14:15:00
9:35 AM,71.6,64.4,78,30.02,8.0,SSE,5.8,-,N/A,,Clear,150,2013-10-01 14:35:00
9:55 AM,73.4,66.2,78,30.02,10.0,South,5.8,-,N/A,,Clear,170,2013-10-01 14:55:00
10:15 AM,75.2,64.4,69,30.03,10.0,SSE,10.4,-,N/A,,Scattered Clouds,160,2013-10-01 15:15:00
10:35 AM,77.0,66.2,69,30.03,10.0,South,11.5,-,N/A,,Scattered Clouds,190,2013-10-01 15:35:00
10:55 AM,78.8,66.2,65,30.03,10.0,SSW,9.2,-,N/A,,Scattered Clouds,200,2013-10-01 15:55:00
11:15 AM,78.8,64.4,61,30.02,10.0,South,9.2,-,N/A,,Partly Cloudy,190,2013-10-01 16:15:00
11:35 AM,78.8,64.4,61,30.02,10.0,SSW,11.5,16.1,N/A,,Partly Cloudy,210,2013-10-01 16:35:00
11:56 AM,80.6,64.4,58,30.02,10.0,SSW,9.2,-,N/A,,Scattered Clouds,200,2013-10-01 16:56:00
12:15 PM,80.6,64.4,58,30.02,10.0,SSW,10.4,-,N/A,,Scattered Clouds,210,2013-10-01 17:15:00
12:35 PM,80.6,64.4,58,30.02,10.0,SSW,12.7,-,N/A,,Scattered Clouds,210,2013-10-01 17:35:00
12:55 PM,82.4,64.4,54,30.01,10.0,South,10.4,16.1,N/A,,Scattered Clouds,190,2013-10-01 17:55:00
1:15 PM,80.6,64.4,58,30.01,10.0,SSW,11.5,-,N/A,,Mostly Cloudy,200,2013-10-01 18:15:00
1:35 PM,82.4,64.4,54,30.00,10.0,SSW,11.5,16.1,N/A,,Scattered Clouds,210,2013-10-01 18:35:00
1:55 PM,82.4,64.4,54,29.99,10.0,SSW,12.7,16.1,N/A,,Partly Cloudy,200,2013-10-01 18:55:00
2:15 PM,84.2,64.4,51,29.98,10.0,SSW,10.4,-,N/A,,Clear,210,2013-10-01 19:15:00
2:35 PM,84.2,64.4,51,29.98,10.0,South,8.1,-,N/A,,Clear,180,2013-10-01 19:35:00
3:15 PM,-9999,-9999,N/A,-9999,10.0,North,-9999.0,-,N/A,,Mostly Cloudy,0,2013-10-01 20:15:00
3:35 PM,-9999,-9999,N/A,-9999,10.0,North,-9999.0,-,N/A,,Scattered Clouds,0,2013-10-01 20:35:00
4:15 PM,82.4,64.4,54,-9999,10.0,North,-9999.0,-,N/A,,Partly Cloudy,0,2013-10-01 21:15:00
4:35 PM,84.2,64.4,51,-9999,10.0,North,-9999.0,-,N/A,,Clear,0,2013-10-01 21:35:00
4:55 PM,82.4,64.4,54,29.96,10.0,North,-9999.0,-,N/A,,Clear,0,2013-10-01 21:55:00
5:15 PM,82.4,64.4,54,-9999,10.0,North,-9999.0,-,N/A,,Clear,0,2013-10-01 22:15:00
5:35 PM,82.4,64.4,54,29.96,10.0,North,-9999.0,-,N/A,,Partly Cloudy,0,2013-10-01 22:35:00
5:55 PM,80.6,64.4,58,29.97,10.0,North,-9999.0,-,N/A,,Partly Cloudy,0,2013-10-01 22:55:00
6:15 PM,80.6,64.4,58,29.97,10.0,North,-9999.0,-,N/A,,Mostly Cloudy,0,2013-10-01 23:15:00
6:35 PM,78.8,64.4,61,-9999,10.0,North,-9999.0,-,N/A,,Partly Cloudy,0,2013-10-01 23:35:00
6:55 PM,77.0,64.4,65,-9999,10.0,North,-9999.0,-,N/A,,Clear,0,2013-10-01 23:55:00
7:15 PM,75.2,64.4,69,-9999,10.0,SE,8.1,-,N/A,,Clear,130,2013-10-02 00:15:00
7:35 PM,75.2,62.6,65,29.98,10.0,SSE,8.1,-,N/A,,Clear,150,2013-10-02 00:35:00
7:55 PM,73.4,62.6,69,-9999,10.0,North,-9999.0,-,N/A,,Clear,0,2013-10-02 00:55:00
8:15 PM,73.4,62.6,69,-9999,10.0,SE,8.1,-,N/A,,Clear,140,2013-10-02 01:15:00
8:35 PM,73.4,62.6,69,30.00,10.0,SSE,6.9,-,N/A,,Clear,150,2013-10-02 01:35:00
8:55 PM,71.6,62.6,73,30.00,10.0,SSE,6.9,-,N/A,,Clear,160,2013-10-02 01:55:00
9:15 PM,71.6,62.6,73,30.01,10.0,SSE,8.1,-,N/A,,Clear,150,2013-10-02 02:15:00
9:55 PM,71.6,62.6,73,30.02,10.0,SSE,8.1,-,N/A,,Clear,150,2013-10-02 02:55:00
10:15 PM,71.6,62.6,73,30.02,10.0,SSE,8.1,-,N/A,,Clear,150,2013-10-02 03:15:00
10:35 PM,71.6,62.6,73,30.02,10.0,SSE,5.8,-,N/A,,Clear,160,2013-10-02 03:35:00
10:55 PM,69.8,62.6,78,30.02,10.0,SSE,5.8,-,N/A,,Clear,160,2013-10-02 03:55:00
11:15 PM,69.8,62.6,78,30.02,10.0,SSE,9.2,-,N/A,,Clear,150,2013-10-02 04:15:00
11:35 PM,71.6,64.4,78,30.02,10.0,SSE,8.1,-,N/A,,Clear,160,2013-10-02 04:35:00
11:55 PM,69.8,62.6,78,30.02,10.0,SSE,6.9,-,N/A,,Clear,160,2013-10-02 04:55:00